nws-alerts: Checking more than four warning/county codes can delay the loading of your pages. You should use a cron job to get the data.
EllijayWeather Station Historical Data
Daily Summary for January 17, 2019 Units:  English    Metric   Both
Daily Weekly Monthly Yearly Custom
  High: Low: Average:
Temperature: 40.8 °F 27.7 °F 35.7 °F
Dew Point: 40.5 °F 26.4 °F 34.8 °F
Humidity: 100% 92% 97%
Wind Speed: 0.9mph 0.0mph 0mph
Wind Gust: 2.0mph - -
Wind- - SSE
Pressure: 30.36 in 30.21 in -
Precipitation: 0.55 in    
Historical Graphs
 
 
Tabular Data for January 17, 2019
Time Temperature Dew Point Pressure Wind Wind Speed Wind Gust Humidity Rainfall Rate (Hourly) solar
00:04 28.6 °F 27.3 °F 30.36 in Calm     95% 0.00 in meteobridge W/m2
00:09 28.6 °F 27.3 °F 30.36 in Calm     95% 0.00 in meteobridge W/m2
00:14 28.6 °F 27.3 °F 30.35 in Calm     95% 0.00 in meteobridge W/m2
00:19 28.6 °F 27.3 °F 30.35 in Calm     95% 0.00 in meteobridge W/m2
00:24 28.6 °F 27.3 °F 30.35 in Calm     95% 0.00 in meteobridge W/m2
00:29 28.6 °F 27.3 °F 30.35 in Calm     95% 0.00 in meteobridge W/m2
00:34 28.6 °F 27.3 °F 30.34 in Calm     95% 0.00 in meteobridge W/m2
00:39 28.4 °F 27.1 °F 30.34 in Calm     95% 0.00 in meteobridge W/m2
00:44 28.6 °F 27.3 °F 30.33 in Calm     95% 0.00 in meteobridge W/m2
00:49 28.2 °F 27.0 °F 30.33 in Calm     95% 0.00 in meteobridge W/m2
00:54 28.2 °F 27.0 °F 30.32 in Calm     95% 0.00 in meteobridge W/m2
00:59 28.2 °F 27.0 °F 30.33 in Calm     95% 0.00 in meteobridge W/m2
01:04 28.2 °F 27.0 °F 30.32 in Calm     95% 0.00 in meteobridge W/m2
01:09 28.2 °F 27.0 °F 30.32 in Calm     95% 0.00 in meteobridge W/m2
01:14 28.0 °F 26.8 °F 30.32 in Calm     95% 0.00 in meteobridge W/m2
01:19 28.0 °F 26.8 °F 30.32 in Calm     95% 0.00 in meteobridge W/m2
01:24 28.0 °F 26.8 °F 30.32 in Calm     95% 0.00 in meteobridge W/m2
01:29 28.0 °F 26.8 °F 30.32 in Calm     95% 0.00 in meteobridge W/m2
01:34 27.9 °F 26.6 °F 30.32 in Calm     95% 0.00 in meteobridge W/m2
01:39 28.0 °F 26.8 °F 30.32 in Calm     95% 0.00 in meteobridge W/m2
01:44 27.9 °F 26.6 °F 30.31 in Calm     95% 0.00 in meteobridge W/m2
01:49 27.9 °F 26.6 °F 30.31 in Calm     95% 0.00 in meteobridge W/m2
01:54 27.9 °F 26.6 °F 30.32 in Calm     95% 0.00 in meteobridge W/m2
01:59 28.0 °F 26.8 °F 30.32 in Calm     95% 0.00 in meteobridge W/m2
02:04 28.0 °F 26.8 °F 30.32 in Calm     95% 0.00 in meteobridge W/m2
02:09 27.9 °F 26.6 °F 30.32 in Calm     95% 0.00 in meteobridge W/m2
02:14 27.9 °F 26.6 °F 30.32 in Calm     95% 0.00 in meteobridge W/m2
02:19 27.9 °F 26.6 °F 30.32 in Calm     95% 0.00 in meteobridge W/m2
02:24 27.9 °F 26.6 °F 30.32 in Calm     95% 0.00 in meteobridge W/m2
02:29 27.9 °F 26.6 °F 30.33 in Calm     95% 0.00 in meteobridge W/m2
02:34 27.9 °F 26.6 °F 30.33 in Calm     95% 0.00 in meteobridge W/m2
02:39 27.7 °F 26.4 °F 30.33 in Calm     95% 0.00 in meteobridge W/m2
02:44 27.7 °F 26.4 °F 30.34 in Calm     95% 0.00 in meteobridge W/m2
02:49 27.9 °F 26.6 °F 30.34 in Calm     95% 0.00 in meteobridge W/m2
02:54 27.7 °F 26.4 °F 30.33 in Calm     95% 0.00 in meteobridge W/m2
02:59 27.7 °F 26.4 °F 30.33 in Calm     95% 0.00 in meteobridge W/m2
03:04 27.7 °F 26.4 °F 30.33 in Calm     95% 0.00 in meteobridge W/m2
03:09 27.7 °F 26.4 °F 30.33 in Calm     95% 0.00 in meteobridge W/m2
03:14 27.7 °F 26.4 °F 30.33 in Calm     95% 0.00 in meteobridge W/m2
03:19 27.9 °F 26.8 °F 30.33 in Calm     96% 0.00 in meteobridge W/m2
03:24 27.9 °F 26.8 °F 30.34 in Calm     96% 0.00 in meteobridge W/m2
03:29 27.9 °F 26.8 °F 30.33 in Calm     96% 0.00 in meteobridge W/m2
03:34 28.0 °F 27.0 °F 30.33 in Calm     96% 0.00 in meteobridge W/m2
03:39 28.0 °F 27.0 °F 30.33 in Calm     96% 0.00 in meteobridge W/m2
03:44 28.0 °F 27.0 °F 30.33 in Calm     96% 0.00 in meteobridge W/m2
03:49 28.2 °F 27.1 °F 30.33 in Calm     96% 0.00 in meteobridge W/m2
03:54 28.2 °F 27.1 °F 30.33 in Calm     96% 0.00 in meteobridge W/m2
03:59 28.4 °F 27.3 °F 30.33 in Calm     96% 0.00 in meteobridge W/m2
04:04 28.4 °F 27.3 °F 30.32 in Calm     96% 0.00 in meteobridge W/m2
04:09 28.6 °F 27.5 °F 30.32 in Calm     96% 0.00 in meteobridge W/m2
04:14 28.6 °F 27.5 °F 30.32 in Calm     96% 0.00 in meteobridge W/m2
04:19 28.6 °F 27.3 °F 30.32 in Calm     95% 0.00 in meteobridge W/m2
04:24 28.6 °F 27.3 °F 30.32 in Calm     95% 0.00 in meteobridge W/m2
04:29 28.6 °F 27.3 °F 30.32 in Calm     95% 0.00 in meteobridge W/m2
04:34 28.8 °F 27.7 °F 30.32 in Calm     96% 0.00 in meteobridge W/m2
04:39 28.8 °F 27.5 °F 30.32 in Calm     95% 0.00 in meteobridge W/m2
04:44 28.8 °F 27.7 °F 30.32 in Calm     96% 0.00 in meteobridge W/m2
04:49 28.8 °F 27.7 °F 30.32 in Calm     96% 0.00 in meteobridge W/m2
04:54 28.8 °F 27.7 °F 30.32 in Calm     96% 0.00 in meteobridge W/m2
04:59 28.8 °F 27.7 °F 30.31 in Calm     96% 0.00 in meteobridge W/m2
05:04 28.8 °F 27.7 °F 30.31 in Calm     96% 0.00 in meteobridge W/m2
05:09 28.8 °F 27.5 °F 30.31 in Calm     95% 0.00 in meteobridge W/m2
05:14 28.8 °F 27.5 °F 30.30 in Calm     95% 0.00 in meteobridge W/m2
05:19 28.8 °F 27.5 °F 30.30 in Calm     95% 0.00 in meteobridge W/m2
05:24 28.8 °F 27.5 °F 30.30 in Calm     95% 0.00 in meteobridge W/m2
05:29 28.8 °F 27.5 °F 30.29 in Calm     95% 0.00 in meteobridge W/m2
05:33 28.8 °F 27.5 °F 30.29 in Calm     95% 0.00 in meteobridge W/m2
05:39 28.8 °F 27.7 °F 30.29 in Calm     96% 0.00 in meteobridge W/m2
05:44 28.9 °F 27.9 °F 30.29 in Calm     96% 0.00 in meteobridge W/m2
05:49 28.9 °F 27.9 °F 30.30 in Calm     96% 0.00 in meteobridge W/m2
05:54 28.9 °F 27.9 °F 30.30 in Calm     96% 0.00 in meteobridge W/m2
05:59 29.1 °F 28.0 °F 30.29 in Calm     96% 0.00 in meteobridge W/m2
06:04 28.9 °F 27.9 °F 30.29 in Calm     96% 0.00 in meteobridge W/m2
06:08 29.1 °F 28.0 °F 30.29 in Calm     96% 0.00 in meteobridge W/m2
06:14 29.1 °F 28.0 °F 30.29 in Calm     96% 0.00 in meteobridge W/m2
06:19 29.1 °F 28.0 °F 30.29 in Calm     96% 0.00 in meteobridge W/m2
06:24 29.1 °F 28.0 °F 30.29 in Calm     96% 0.00 in meteobridge W/m2
06:29 29.1 °F 28.0 °F 30.29 in Calm     96% 0.00 in meteobridge W/m2
06:34 29.3 °F 28.2 °F 30.30 in Calm     96% 0.00 in meteobridge W/m2
06:39 29.3 °F 28.2 °F 30.29 in Calm     96% 0.00 in meteobridge W/m2
06:44 29.5 °F 28.4 °F 30.29 in Calm     96% 0.00 in meteobridge W/m2
06:49 29.5 °F 28.4 °F 30.29 in Calm     96% 0.00 in meteobridge W/m2
06:54 29.5 °F 28.4 °F 30.29 in Calm     96% 0.00 in meteobridge W/m2
06:58 29.5 °F 28.4 °F 30.29 in Calm     96% 0.00 in meteobridge W/m2
07:04 29.5 °F 28.4 °F 30.29 in Calm     96% 0.00 in meteobridge W/m2
07:09 29.7 °F 28.6 °F 30.29 in Calm     96% 0.00 in meteobridge W/m2
07:14 29.7 °F 28.6 °F 30.30 in Calm     96% 0.00 in meteobridge W/m2
07:19 29.8 °F 28.8 °F 30.30 in Calm     96% 0.00 in meteobridge W/m2
07:24 29.8 °F 28.8 °F 30.29 in Calm     96% 0.00 in meteobridge W/m2
07:29 30.0 °F 28.9 °F 30.29 in Calm     96% 0.00 in meteobridge W/m2
07:34 30.2 °F 29.1 °F 30.29 in Calm     96% 0.00 in meteobridge W/m2
07:39 30.2 °F 29.1 °F 30.29 in Calm     96% 0.00 in meteobridge W/m2
07:44 30.4 °F 29.3 °F 30.29 in Calm     96% 0.00 in meteobridge W/m2
07:49 30.6 °F 29.5 °F 30.28 in Calm     96% 0.00 in meteobridge W/m2
07:54 30.6 °F 29.5 °F 30.28 in Calm     96% 0.00 in meteobridge W/m2
07:59 30.6 °F 29.5 °F 30.27 in Calm     96% 0.00 in meteobridge W/m2
08:04 30.7 °F 29.7 °F 30.27 in Calm     96% 0.00 in meteobridge W/m2
08:09 30.7 °F 29.7 °F 30.27 in Calm     96% 0.00 in meteobridge W/m2
08:14 30.7 °F 29.7 °F 30.28 in Calm     96% 0.00 in meteobridge W/m2
08:19 30.7 °F 29.7 °F 30.28 in Calm     96% 0.00 in meteobridge W/m2
08:23 30.9 °F 29.8 °F 30.28 in Calm     96% 0.00 in meteobridge W/m2
08:29 31.1 °F 30.0 °F 30.29 in Calm     96% 0.00 in meteobridge W/m2
08:34 31.3 °F 30.2 °F 30.29 in Calm     96% 0.00 in meteobridge W/m2
08:39 31.5 °F 30.4 °F 30.28 in Calm     96% 0.00 in meteobridge W/m2
08:44 31.5 °F 30.4 °F 30.28 in Calm     96% 0.00 in meteobridge W/m2
08:49 31.6 °F 30.9 °F 30.28 in Calm     97% 0.00 in meteobridge W/m2
08:54 31.8 °F 31.1 °F 30.29 in Calm     97% 0.00 in meteobridge W/m2
08:59 32.0 °F 31.3 °F 30.29 in Calm     97% 0.00 in meteobridge W/m2
09:04 32.2 °F 31.5 °F 30.29 in Calm     97% 0.00 in meteobridge W/m2
09:09 32.4 °F 31.6 °F 30.29 in Calm     97% 0.00 in meteobridge W/m2
09:14 32.5 °F 31.5 °F 30.29 in Calm     96% 0.00 in meteobridge W/m2
09:19 32.5 °F 31.5 °F 30.28 in Calm     96% 0.00 in meteobridge W/m2
09:24 33.1 °F 32.0 °F 30.27 in Calm     96% 0.00 in meteobridge W/m2
09:29 33.3 °F 32.5 °F 30.28 in Calm     97% 0.00 in meteobridge W/m2
09:34 33.8 °F 32.7 °F 30.28 in Calm     96% 0.00 in meteobridge W/m2
09:39 34.3 °F 33.3 °F 30.27 in Calm     96% 0.00 in meteobridge W/m2
09:44 35.1 °F 33.8 °F 30.27 in Calm     95% 0.00 in meteobridge W/m2
09:49 35.4 °F 34.2 °F 30.27 in Calm     95% 0.00 in meteobridge W/m2
09:54 36.0 °F 34.7 °F 30.29 in Calm     95% 0.00 in meteobridge W/m2
09:59 36.3 °F 35.1 °F 30.29 in Calm     95% 0.00 in meteobridge W/m2
10:04 36.9 °F 35.6 °F 30.29 in Calm     95% 0.00 in meteobridge W/m2
10:09 37.4 °F 35.8 °F 30.29 in Calm     94% 0.00 in meteobridge W/m2
10:14 37.8 °F 36.1 °F 30.30 in Calm     94% 0.00 in meteobridge W/m2
10:19 38.1 °F 36.5 °F 30.30 in Calm     94% 0.00 in meteobridge W/m2
10:24 38.7 °F 37.0 °F 30.30 in Calm     94% 0.00 in meteobridge W/m2
10:29 38.8 °F 37.0 °F 30.31 in Calm     93% 0.00 in meteobridge W/m2
10:34 38.8 °F 37.0 °F 30.31 in Calm   1.0 mph 93% 0.00 in meteobridge W/m2
10:39 39.0 °F 36.9 °F 30.32 in Calm     92% 0.00 in meteobridge W/m2
10:44 39.0 °F 37.2 °F 30.32 in Calm     93% 0.00 in meteobridge W/m2
10:49 39.0 °F 37.2 °F 30.31 in Calm     93% 0.00 in meteobridge W/m2
10:54 38.8 °F 37.2 °F 30.31 in Calm     94% 0.01 in meteobridge W/m2
10:59 38.8 °F 37.6 °F 30.32 in Calm     95% 0.02 in meteobridge W/m2
11:04 38.8 °F 37.6 °F 30.32 in Calm     95% 0.02 in meteobridge W/m2
11:09 38.8 °F 37.8 °F 30.32 in Calm     96% 0.03 in meteobridge W/m2
11:14 38.8 °F 37.8 °F 30.33 in Calm     96% 0.04 in meteobridge W/m2
11:19 38.8 °F 37.8 °F 30.33 in Calm     96% 0.05 in meteobridge W/m2
11:24 38.8 °F 38.1 °F 30.33 in Calm     97% 0.06 in meteobridge W/m2
11:29 38.8 °F 38.1 °F 30.33 in Calm     97% 0.07 in meteobridge W/m2
11:34 39.0 °F 38.3 °F 30.33 in Calm     97% 0.07 in meteobridge W/m2
11:39 39.2 °F 38.5 °F 30.33 in Calm     97% 0.08 in meteobridge W/m2
11:44 39.2 °F 38.5 °F 30.33 in Calm   1.0 mph 97% 0.08 in meteobridge W/m2
11:49 39.2 °F 38.1 °F 30.33 in Calm     96% 0.08 in meteobridge W/m2
11:54 39.4 °F 38.3 °F 30.33 in Calm   1.0 mph 96% 0.07 in meteobridge W/m2
11:59 39.4 °F 38.3 °F 30.33 in Calm   1.0 mph 96% 0.06 in meteobridge W/m2
12:03 39.4 °F 38.3 °F 30.33 in Calm   1.0 mph 96% 0.06 in meteobridge W/m2
12:09 39.4 °F 38.3 °F 30.33 in Calm     96% 0.06 in meteobridge W/m2
12:14 39.6 °F 38.5 °F 30.32 in Calm     96% 0.05 in meteobridge W/m2
12:19 39.6 °F 38.5 °F 30.32 in Calm     96% 0.04 in meteobridge W/m2
12:24 39.6 °F 38.5 °F 30.32 in Calm     96% 0.03 in meteobridge W/m2
12:29 39.6 °F 38.5 °F 30.31 in Calm   1.0 mph 96% 0.02 in meteobridge W/m2
12:34 39.6 °F 38.5 °F 30.31 in Calm     96% 0.03 in meteobridge W/m2
12:39 39.6 °F 38.5 °F 30.31 in North 0.9 mph 2.0 mph 96% 0.02 in meteobridge W/m2
12:44 39.6 °F 38.5 °F 30.30 in Calm   2.0 mph 96% 0.02 in meteobridge W/m2
12:49 39.7 °F 38.7 °F 30.30 in Calm     96% 0.02 in meteobridge W/m2
12:54 39.7 °F 38.7 °F 30.29 in NNW 0.9 mph 2.0 mph 96% 0.02 in meteobridge W/m2
12:59 39.7 °F 38.7 °F 30.29 in Calm     96% 0.02 in meteobridge W/m2
13:04 39.7 °F 38.7 °F 30.29 in Calm     96% 0.02 in meteobridge W/m2
13:09 39.9 °F 38.8 °F 30.28 in Calm     96% 0.01 in meteobridge W/m2
13:14 39.9 °F 38.8 °F 30.28 in Calm     96% 0.02 in meteobridge W/m2
13:19 39.9 °F 38.8 °F 30.28 in Calm   1.0 mph 96% 0.02 in meteobridge W/m2
13:24 40.1 °F 39.0 °F 30.28 in Calm     96% 0.02 in meteobridge W/m2
13:29 40.1 °F 39.0 °F 30.28 in Calm     96% 0.02 in meteobridge W/m2
13:34 39.9 °F 38.8 °F 30.28 in Calm     96% 0.01 in meteobridge W/m2
13:39 40.1 °F 39.0 °F 30.28 in Calm     96% 0.02 in meteobridge W/m2
13:44 40.1 °F 39.0 °F 30.27 in Calm     96% 0.03 in meteobridge W/m2
13:49 40.3 °F 39.6 °F 30.27 in Calm     97% 0.03 in meteobridge W/m2
13:54 40.3 °F 39.6 °F 30.27 in Calm     97% 0.04 in meteobridge W/m2
13:59 40.5 °F 39.7 °F 30.26 in Calm     97% 0.04 in meteobridge W/m2
14:04 40.5 °F 39.7 °F 30.26 in Calm     97% 0.04 in meteobridge W/m2
14:09 40.6 °F 39.9 °F 30.26 in Calm     97% 0.04 in meteobridge W/m2
14:14 40.6 °F 39.9 °F 30.26 in Calm     97% 0.03 in meteobridge W/m2
14:19 40.6 °F 39.9 °F 30.25 in Calm     97% 0.03 in meteobridge W/m2
14:24 40.8 °F 40.1 °F 30.24 in Calm   2.0 mph 97% 0.03 in meteobridge W/m2
14:29 40.8 °F 40.1 °F 30.23 in Calm     97% 0.04 in meteobridge W/m2
14:34 40.8 °F 40.1 °F 30.24 in Calm     97% 0.05 in meteobridge W/m2
14:39 40.8 °F 40.1 °F 30.25 in Calm     97% 0.05 in meteobridge W/m2
14:44 40.8 °F 40.1 °F 30.24 in Calm     97% 0.04 in meteobridge W/m2
14:49 40.8 °F 40.1 °F 30.23 in Calm   1.0 mph 97% 0.05 in meteobridge W/m2
14:54 40.6 °F 39.9 °F 30.24 in Calm     97% 0.05 in meteobridge W/m2
14:59 40.6 °F 39.9 °F 30.24 in Calm     97% 0.06 in meteobridge W/m2
15:04 40.6 °F 39.9 °F 30.24 in Calm     97% 0.08 in meteobridge W/m2
15:09 40.6 °F 39.9 °F 30.23 in Calm     97% 0.10 in meteobridge W/m2
15:14 40.6 °F 39.9 °F 30.24 in Calm     97% 0.12 in meteobridge W/m2
15:19 40.6 °F 39.9 °F 30.23 in Calm     97% 0.13 in meteobridge W/m2
15:24 40.6 °F 40.1 °F 30.23 in Calm     98% 0.15 in meteobridge W/m2
15:29 40.5 °F 39.7 °F 30.22 in Calm     97% 0.15 in meteobridge W/m2
15:34 40.5 °F 39.7 °F 30.22 in Calm     97% 0.15 in meteobridge W/m2
15:39 40.5 °F 39.7 °F 30.23 in Calm     97% 0.17 in meteobridge W/m2
15:44 40.3 °F 39.6 °F 30.23 in Calm     97% 0.17 in meteobridge W/m2
15:49 40.5 °F 39.7 °F 30.24 in Calm     97% 0.17 in meteobridge W/m2
15:54 40.5 °F 39.7 °F 30.24 in Calm     97% 0.17 in meteobridge W/m2
15:59 40.5 °F 39.9 °F 30.24 in Calm     98% 0.17 in meteobridge W/m2
16:04 40.5 °F 39.9 °F 30.24 in Calm     98% 0.16 in meteobridge W/m2
16:09 40.5 °F 39.9 °F 30.24 in Calm     98% 0.15 in meteobridge W/m2
16:14 40.3 °F 39.7 °F 30.24 in Calm     98% 0.15 in meteobridge W/m2
16:19 40.3 °F 39.7 °F 30.24 in Calm     98% 0.14 in meteobridge W/m2
16:24 40.3 °F 39.7 °F 30.23 in Calm     98% 0.15 in meteobridge W/m2
16:29 40.1 °F 40.1 °F 30.23 in Calm     100% 0.16 in meteobridge W/m2
16:34 40.1 °F 39.6 °F 30.22 in Calm     98% 0.17 in meteobridge W/m2
16:39 40.1 °F 39.6 °F 30.21 in Calm     98% 0.16 in meteobridge W/m2
16:44 40.1 °F 39.6 °F 30.21 in Calm     98% 0.16 in meteobridge W/m2
16:49 40.3 °F 39.7 °F 30.22 in Calm     98% 0.15 in meteobridge W/m2
16:54 40.3 °F 39.7 °F 30.22 in Calm     98% 0.14 in meteobridge W/m2
16:59 40.5 °F 39.9 °F 30.22 in Calm     98% 0.13 in meteobridge W/m2
17:04 40.5 °F 39.9 °F 30.22 in Calm     98% 0.12 in meteobridge W/m2
17:09 40.5 °F 39.9 °F 30.22 in Calm     98% 0.11 in meteobridge W/m2
17:14 40.6 °F 40.1 °F 30.22 in Calm     98% 0.09 in meteobridge W/m2
17:19 40.6 °F 40.1 °F 30.22 in Calm     98% 0.08 in meteobridge W/m2
17:24 40.6 °F 40.1 °F 30.22 in Calm     98% 0.06 in meteobridge W/m2
17:29 40.6 °F 40.1 °F 30.22 in Calm     98% 0.04 in meteobridge W/m2
17:34 40.6 °F 40.1 °F 30.22 in Calm     98% 0.03 in meteobridge W/m2
17:39 40.6 °F 40.1 °F 30.22 in Calm     98% 0.02 in meteobridge W/m2
17:44 40.6 °F 40.1 °F 30.22 in Calm     98% 0.01 in meteobridge W/m2
17:49 40.6 °F 40.1 °F 30.22 in Calm     98% 0.01 in meteobridge W/m2
17:54 40.6 °F 40.1 °F 30.22 in Calm   1.0 mph 98% 0.01 in meteobridge W/m2
17:59 40.6 °F 40.1 °F 30.22 in Calm     98% 0.01 in meteobridge W/m2
18:04 40.6 °F 40.1 °F 30.22 in Calm     98% 0.01 in meteobridge W/m2
18:09 40.6 °F 40.1 °F 30.22 in Calm     98% 0.01 in meteobridge W/m2
18:14 40.6 °F 40.1 °F 30.22 in Calm     98% 0.01 in meteobridge W/m2
18:19 40.6 °F 40.1 °F 30.22 in Calm     98% 0.01 in meteobridge W/m2
18:24 40.6 °F 40.1 °F 30.22 in Calm     98% 0.01 in meteobridge W/m2
18:29 40.5 °F 39.9 °F 30.22 in Calm     98% 0.01 in meteobridge W/m2
18:34 40.5 °F 39.9 °F 30.23 in Calm     98% 0.00 in meteobridge W/m2
18:39 40.5 °F 39.9 °F 30.23 in Calm     98% 0.01 in meteobridge W/m2
18:43 40.5 °F 39.9 °F 30.23 in Calm     98% 0.01 in meteobridge W/m2
18:49 40.5 °F 39.9 °F 30.22 in Calm     98% 0.01 in meteobridge W/m2
18:54 40.3 °F 39.7 °F 30.22 in Calm     98% 0.01 in meteobridge W/m2
18:59 40.3 °F 39.7 °F 30.22 in Calm     98% 0.01 in meteobridge W/m2
19:04 40.3 °F 39.7 °F 30.22 in Calm     98% 0.01 in meteobridge W/m2
19:09 40.3 °F 39.7 °F 30.21 in Calm     98% 0.01 in meteobridge W/m2
19:14 40.3 °F 39.7 °F 30.21 in Calm     98% 0.01 in meteobridge W/m2
19:19 40.3 °F 39.7 °F 30.22 in Calm     98% 0.01 in meteobridge W/m2
19:24 40.3 °F 39.7 °F 30.22 in Calm     98% 0.01 in meteobridge W/m2
19:29 40.3 °F 39.7 °F 30.22 in Calm     98% 0.01 in meteobridge W/m2
19:34 40.3 °F 39.7 °F 30.22 in Calm     98% 0.01 in meteobridge W/m2
19:39 40.3 °F 39.7 °F 30.22 in Calm     98% 0.00 in meteobridge W/m2
19:44 40.3 °F 39.7 °F 30.23 in Calm     98% 0.00 in meteobridge W/m2
19:49 40.3 °F 39.7 °F 30.23 in Calm     98% 0.00 in meteobridge W/m2
19:54 40.3 °F 39.7 °F 30.23 in Calm     98% 0.00 in meteobridge W/m2
19:59 40.3 °F 39.7 °F 30.22 in Calm     98% 0.00 in meteobridge W/m2
20:04 40.3 °F 39.7 °F 30.22 in Calm     98% 0.00 in meteobridge W/m2
20:09 40.3 °F 39.7 °F 30.22 in Calm     98% 0.00 in meteobridge W/m2
20:14 40.3 °F 39.7 °F 30.22 in Calm     98% 0.00 in meteobridge W/m2
20:19 40.3 °F 39.7 °F 30.23 in Calm     98% 0.00 in meteobridge W/m2
20:24 40.3 °F 39.7 °F 30.22 in Calm     98% 0.01 in meteobridge W/m2
20:29 40.3 °F 39.7 °F 30.23 in Calm     98% 0.01 in meteobridge W/m2
20:34 40.3 °F 39.7 °F 30.23 in Calm     98% 0.01 in meteobridge W/m2
20:39 40.3 °F 39.7 °F 30.23 in Calm     98% 0.01 in meteobridge W/m2
20:44 40.3 °F 39.7 °F 30.23 in Calm     98% 0.01 in meteobridge W/m2
20:49 40.3 °F 39.7 °F 30.23 in Calm     98% 0.01 in meteobridge W/m2
20:54 40.3 °F 39.7 °F 30.24 in Calm     98% 0.01 in meteobridge W/m2
20:59 40.3 °F 39.7 °F 30.24 in Calm     98% 0.01 in meteobridge W/m2
21:04 40.3 °F 39.7 °F 30.24 in Calm     98% 0.01 in meteobridge W/m2
21:09 40.3 °F 39.7 °F 30.24 in Calm     98% 0.01 in meteobridge W/m2
21:13 40.3 °F 39.7 °F 30.24 in Calm     98% 0.01 in meteobridge W/m2
21:19 40.3 °F 39.7 °F 30.23 in Calm     98% 0.01 in meteobridge W/m2
21:24 40.3 °F 39.7 °F 30.23 in Calm     98% 0.00 in meteobridge W/m2
21:29 40.3 °F 39.7 °F 30.23 in Calm     98% 0.00 in meteobridge W/m2
21:34 40.5 °F 39.9 °F 30.23 in Calm     98% 0.00 in meteobridge W/m2
21:39 40.5 °F 39.9 °F 30.23 in Calm     98% 0.00 in meteobridge W/m2
21:44 40.3 °F 39.7 °F 30.23 in Calm     98% 0.00 in meteobridge W/m2
21:49 40.5 °F 39.9 °F 30.23 in Calm     98% 0.00 in meteobridge W/m2
21:54 40.5 °F 39.9 °F 30.23 in Calm     98% 0.00 in meteobridge W/m2
21:59 40.5 °F 39.9 °F 30.23 in Calm     98% 0.01 in meteobridge W/m2
22:04 40.5 °F 39.9 °F 30.22 in Calm     98% 0.01 in meteobridge W/m2
22:09 40.5 °F 39.9 °F 30.22 in Calm     98% 0.01 in meteobridge W/m2
22:14 40.5 °F 39.9 °F 30.22 in Calm     98% 0.01 in meteobridge W/m2
22:19 40.5 °F 39.9 °F 30.22 in Calm     98% 0.01 in meteobridge W/m2
22:23 40.5 °F 39.9 °F 30.22 in Calm     98% 0.01 in meteobridge W/m2
22:29 40.5 °F 39.9 °F 30.22 in Calm     98% 0.01 in meteobridge W/m2
22:34 40.5 °F 39.9 °F 30.22 in Calm     98% 0.01 in meteobridge W/m2
22:39 40.5 °F 40.3 °F 30.22 in Calm     99% 0.01 in meteobridge W/m2
22:44 40.5 °F 39.9 °F 30.22 in Calm     98% 0.01 in meteobridge W/m2
22:49 40.5 °F 39.9 °F 30.22 in Calm     98% 0.01 in meteobridge W/m2
22:54 40.5 °F 39.9 °F 30.23 in Calm     98% 0.01 in meteobridge W/m2
22:59 40.5 °F 40.3 °F 30.23 in Calm     99% 0.00 in meteobridge W/m2
23:04 40.5 °F 40.3 °F 30.23 in Calm     99% 0.00 in meteobridge W/m2
23:09 40.5 °F 39.9 °F 30.23 in Calm     98% 0.01 in meteobridge W/m2
23:14 40.6 °F 40.5 °F 30.23 in Calm     99% 0.01 in meteobridge W/m2
23:19 40.5 °F 39.9 °F 30.23 in Calm     98% 0.01 in meteobridge W/m2
23:24 40.6 °F 40.5 °F 30.23 in Calm     99% 0.01 in meteobridge W/m2
23:29 40.5 °F 39.9 °F 30.23 in Calm     98% 0.01 in meteobridge W/m2
23:34 40.5 °F 40.3 °F 30.23 in Calm     99% 0.01 in meteobridge W/m2
23:39 40.6 °F 40.5 °F 30.22 in Calm     99% 0.01 in meteobridge W/m2
23:44 40.6 °F 40.5 °F 30.22 in Calm     99% 0.01 in meteobridge W/m2
23:49 40.6 °F 40.5 °F 30.22 in Calm     99% 0.01 in meteobridge W/m2
23:54 40.6 °F 40.5 °F 30.22 in Calm     99% 0.01 in meteobridge W/m2
23:59 40.6 °F 40.5 °F 30.22 in Calm     99% 0.01 in meteobridge W/m2
EllijayWeather
Compliments of Weather Underground - 2.5 mb